sensor_id;sensor_type;location;lat;lon;timestamp;P1;durP1;ratioP1;P2;durP2;ratioP2
23586;SDS011;11971;51.148;4.104;2023-07-16T00:00:53;104.40;;;39.17;;
23586;SDS011;11971;51.148;4.104;2023-07-16T00:03:21;109.88;;;38.90;;
23586;SDS011;11971;51.148;4.104;2023-07-16T00:05:49;110.35;;;38.95;;
23586;SDS011;11971;51.148;4.104;2023-07-16T00:08:16;108.50;;;39.25;;
23586;SDS011;11971;51.148;4.104;2023-07-16T00:10:42;107.25;;;39.17;;
23586;SDS011;11971;51.148;4.104;2023-07-16T00:13:10;108.90;;;39.17;;
23586;SDS011;11971;51.148;4.104;2023-07-16T00:15:37;104.50;;;38.70;;
23586;SDS011;11971;51.148;4.104;2023-07-16T00:18:04;104.28;;;38.88;;
23586;SDS011;11971;51.148;4.104;2023-07-16T00:20:31;106.25;;;38.58;;
23586;SDS011;11971;51.148;4.104;2023-07-16T00:22:57;106.20;;;38.55;;
23586;SDS011;11971;51.148;4.104;2023-07-16T00:25:24;104.28;;;38.45;;
23586;SDS011;11971;51.148;4.104;2023-07-16T00:27:51;102.47;;;38.50;;
23586;SDS011;11971;51.148;4.104;2023-07-16T00:30:19;109.30;;;39.72;;
23586;SDS011;11971;51.148;4.104;2023-07-16T00:32:45;106.13;;;38.97;;
23586;SDS011;11971;51.148;4.104;2023-07-16T00:35:12;108.40;;;38.88;;
23586;SDS011;11971;51.148;4.104;2023-07-16T00:37:39;108.85;;;38.95;;
23586;SDS011;11971;51.148;4.104;2023-07-16T00:40:06;108.22;;;39.42;;
23586;SDS011;11971;51.148;4.104;2023-07-16T00:42:33;106.20;;;38.72;;
23586;SDS011;11971;51.148;4.104;2023-07-16T00:45:00;106.82;;;38.70;;
23586;SDS011;11971;51.148;4.104;2023-07-16T00:47:28;106.10;;;39.03;;
23586;SDS011;11971;51.148;4.104;2023-07-16T00:49:54;108.50;;;38.75;;
23586;SDS011;11971;51.148;4.104;2023-07-16T00:52:21;110.07;;;38.92;;
23586;SDS011;11971;51.148;4.104;2023-07-16T00:54:48;106.28;;;38.72;;
23586;SDS011;11971;51.148;4.104;2023-07-16T00:57:15;107.85;;;39.13;;
23586;SDS011;11971;51.148;4.104;2023-07-16T00:59:42;107.05;;;38.90;;
23586;SDS011;11971;51.148;4.104;2023-07-16T01:02:09;108.88;;;39.30;;
23586;SDS011;11971;51.148;4.104;2023-07-16T01:04:37;107.35;;;39.05;;
23586;SDS011;11971;51.148;4.104;2023-07-16T01:07:04;109.07;;;39.60;;
23586;SDS011;11971;51.148;4.104;2023-07-16T01:09:33;104.93;;;38.67;;
23586;SDS011;11971;51.148;4.104;2023-07-16T01:12:02;107.43;;;38.97;;
23586;SDS011;11971;51.148;4.104;2023-07-16T01:14:30;109.88;;;38.92;;
23586;SDS011;11971;51.148;4.104;2023-07-16T01:16:56;106.00;;;38.78;;
23586;SDS011;11971;51.148;4.104;2023-07-16T01:19:24;106.47;;;38.60;;
23586;SDS011;11971;51.148;4.104;2023-07-16T01:21:55;103.30;;;38.83;;
23586;SDS011;11971;51.148;4.104;2023-07-16T01:24:36;108.75;;;38.88;;
23586;SDS011;11971;51.148;4.104;2023-07-16T01:30:04;104.63;;;38.45;;
23586;SDS011;11971;51.148;4.104;2023-07-16T01:32:34;108.20;;;38.40;;
23586;SDS011;11971;51.148;4.104;2023-07-16T01:35:02;102.68;;;38.75;;
23586;SDS011;11971;51.148;4.104;2023-07-16T01:37:29;109.35;;;38.90;;
23586;SDS011;11971;51.148;4.104;2023-07-16T01:39:56;106.72;;;39.05;;
23586;SDS011;11971;51.148;4.104;2023-07-16T01:42:23;116.60;;;39.33;;
23586;SDS011;11971;51.148;4.104;2023-07-16T01:44:49;102.18;;;38.80;;
23586;SDS011;11971;51.148;4.104;2023-07-16T01:47:19;106.38;;;39.47;;
23586;SDS011;11971;51.148;4.104;2023-07-16T01:49:48;106.85;;;39.22;;
23586;SDS011;11971;51.148;4.104;2023-07-16T01:52:13;107.38;;;38.88;;
23586;SDS011;11971;51.148;4.104;2023-07-16T01:54:40;102.70;;;38.75;;
23586;SDS011;11971;51.148;4.104;2023-07-16T01:57:07;108.88;;;38.78;;
23586;SDS011;11971;51.148;4.104;2023-07-16T01:59:34;110.35;;;39.13;;
23586;SDS011;11971;51.148;4.104;2023-07-16T02:02:00;120.65;;;38.88;;
23586;SDS011;11971;51.148;4.104;2023-07-16T02:04:29;105.32;;;38.60;;
23586;SDS011;11971;51.148;4.104;2023-07-16T02:06:55;102.17;;;39.17;;
23586;SDS011;11971;51.148;4.104;2023-07-16T02:09:22;110.38;;;39.30;;
23586;SDS011;11971;51.148;4.104;2023-07-16T02:11:50;110.63;;;38.83;;
23586;SDS011;11971;51.148;4.104;2023-07-16T02:14:17;104.22;;;38.88;;
23586;SDS011;11971;51.148;4.104;2023-07-16T02:16:43;105.75;;;38.85;;
23586;SDS011;11971;51.148;4.104;2023-07-16T02:19:10;109.32;;;39.05;;
23586;SDS011;11971;51.148;4.104;2023-07-16T02:21:38;111.82;;;39.40;;
23586;SDS011;11971;51.148;4.104;2023-07-16T14:29:32;109.57;;;40.13;;
23586;SDS011;11971;51.148;4.104;2023-07-16T14:31:59;112.38;;;40.80;;
23586;SDS011;11971;51.148;4.104;2023-07-16T14:34:26;110.82;;;40.70;;
23586;SDS011;11971;51.148;4.104;2023-07-16T14:36:53;110.70;;;40.40;;
23586;SDS011;11971;51.148;4.104;2023-07-16T14:39:19;110.55;;;40.80;;
23586;SDS011;11971;51.148;4.104;2023-07-16T14:41:46;111.38;;;40.75;;
23586;SDS011;11971;51.148;4.104;2023-07-16T14:44:13;112.38;;;41.10;;
23586;SDS011;11971;51.148;4.104;2023-07-16T14:46:41;112.90;;;40.95;;
23586;SDS011;11971;51.148;4.104;2023-07-16T14:49:07;109.70;;;40.57;;
23586;SDS011;11971;51.148;4.104;2023-07-16T14:51:34;110.80;;;41.00;;
23586;SDS011;11971;51.148;4.104;2023-07-16T14:54:04;110.07;;;40.88;;
23586;SDS011;11971;51.148;4.104;2023-07-16T14:56:31;110.65;;;40.75;;
23586;SDS011;11971;51.148;4.104;2023-07-16T14:58:58;124.15;;;41.22;;
23586;SDS011;11971;51.148;4.104;2023-07-16T15:01:24;111.07;;;41.90;;
23586;SDS011;11971;51.148;4.104;2023-07-16T15:03:52;110.88;;;40.45;;
23586;SDS011;11971;51.148;4.104;2023-07-16T15:06:19;110.70;;;40.60;;
23586;SDS011;11971;51.148;4.104;2023-07-16T15:08:46;110.20;;;40.92;;
23586;SDS011;11971;51.148;4.104;2023-07-16T15:11:13;108.57;;;40.55;;
23586;SDS011;11971;51.148;4.104;2023-07-16T15:13:40;109.53;;;40.33;;
23586;SDS011;11971;51.148;4.104;2023-07-16T15:16:07;108.65;;;40.53;;
23586;SDS011;11971;51.148;4.104;2023-07-16T15:18:36;107.72;;;40.05;;
23586;SDS011;11971;51.148;4.104;2023-07-16T15:21:04;107.43;;;40.25;;
23586;SDS011;11971;51.148;4.104;2023-07-16T15:23:31;107.90;;;40.13;;
23586;SDS011;11971;51.148;4.104;2023-07-16T15:26:00;107.75;;;40.10;;
23586;SDS011;11971;51.148;4.104;2023-07-16T15:28:27;108.53;;;40.25;;
23586;SDS011;11971;51.148;4.104;2023-07-16T15:30:58;107.57;;;40.17;;
23586;SDS011;11971;51.148;4.104;2023-07-16T15:33:24;108.38;;;40.33;;
23586;SDS011;11971;51.148;4.104;2023-07-16T15:35:51;108.82;;;40.40;;
23586;SDS011;11971;51.148;4.104;2023-07-16T15:38:19;107.78;;;40.35;;
23586;SDS011;11971;51.148;4.104;2023-07-16T15:40:46;109.43;;;40.38;;
23586;SDS011;11971;51.148;4.104;2023-07-16T15:43:12;106.72;;;40.22;;
23586;SDS011;11971;51.148;4.104;2023-07-16T15:45:39;107.18;;;39.78;;
23586;SDS011;11971;51.148;4.104;2023-07-16T15:48:07;107.38;;;39.78;;
23586;SDS011;11971;51.148;4.104;2023-07-16T15:50:33;108.85;;;39.72;;
23586;SDS011;11971;51.148;4.104;2023-07-16T15:53:00;106.57;;;39.67;;
23586;SDS011;11971;51.148;4.104;2023-07-16T15:55:28;105.47;;;39.45;;
23586;SDS011;11971;51.148;4.104;2023-07-16T15:57:56;107.38;;;39.17;;
23586;SDS011;11971;51.148;4.104;2023-07-16T16:00:23;103.60;;;39.30;;
23586;SDS011;11971;51.148;4.104;2023-07-16T16:02:50;106.35;;;39.10;;
23586;SDS011;11971;51.148;4.104;2023-07-16T16:05:19;107.00;;;39.47;;
23586;SDS011;11971;51.148;4.104;2023-07-16T16:08:09;102.93;;;38.67;;
23586;SDS011;11971;51.148;4.104;2023-07-16T16:10:41;104.25;;;38.92;;
23586;SDS011;11971;51.148;4.104;2023-07-16T16:13:09;106.18;;;39.25;;
23586;SDS011;11971;51.148;4.104;2023-07-16T16:15:36;108.15;;;39.33;;
23586;SDS011;11971;51.148;4.104;2023-07-16T16:18:02;106.45;;;39.53;;
23586;SDS011;11971;51.148;4.104;2023-07-16T16:20:29;104.45;;;39.35;;
23586;SDS011;11971;51.148;4.104;2023-07-16T16:22:56;104.40;;;39.22;;
23586;SDS011;11971;51.148;4.104;2023-07-16T16:25:23;108.18;;;39.33;;
23586;SDS011;11971;51.148;4.104;2023-07-16T16:27:51;105.50;;;39.28;;
23586;SDS011;11971;51.148;4.104;2023-07-16T16:30:18;104.57;;;39.17;;
23586;SDS011;11971;51.148;4.104;2023-07-16T16:32:44;107.72;;;39.83;;
23586;SDS011;11971;51.148;4.104;2023-07-16T16:35:12;106.55;;;39.33;;
23586;SDS011;11971;51.148;4.104;2023-07-16T16:37:38;106.30;;;39.22;;
23586;SDS011;11971;51.148;4.104;2023-07-16T16:40:06;104.82;;;39.35;;
23586;SDS011;11971;51.148;4.104;2023-07-16T16:42:34;106.97;;;39.72;;
23586;SDS011;11971;51.148;4.104;2023-07-16T16:45:03;109.35;;;39.65;;
23586;SDS011;11971;51.148;4.104;2023-07-16T16:49:56;106.32;;;39.40;;
23586;SDS011;11971;51.148;4.104;2023-07-16T16:52:23;109.00;;;39.75;;
23586;SDS011;11971;51.148;4.104;2023-07-16T16:54:50;109.13;;;39.55;;
23586;SDS011;11971;51.148;4.104;2023-07-16T16:57:16;106.35;;;39.50;;
23586;SDS011;11971;51.148;4.104;2023-07-16T16:59:43;107.07;;;39.70;;
23586;SDS011;11971;51.148;4.104;2023-07-16T17:02:11;106.32;;;39.72;;
23586;SDS011;11971;51.148;4.104;2023-07-16T17:04:38;106.65;;;39.65;;
23586;SDS011;11971;51.148;4.104;2023-07-16T17:07:07;108.10;;;39.72;;
23586;SDS011;11971;51.148;4.104;2023-07-16T17:09:34;105.05;;;39.55;;
23586;SDS011;11971;51.148;4.104;2023-07-16T17:12:01;105.40;;;39.65;;
23586;SDS011;11971;51.148;4.104;2023-07-16T17:14:28;108.28;;;39.63;;
23586;SDS011;11971;51.148;4.104;2023-07-16T17:16:54;106.38;;;39.72;;
23586;SDS011;11971;51.148;4.104;2023-07-16T17:19:23;111.60;;;39.60;;
23586;SDS011;11971;51.148;4.104;2023-07-16T17:21:49;108.13;;;39.87;;
23586;SDS011;11971;51.148;4.104;2023-07-16T17:24:16;106.40;;;39.38;;
23586;SDS011;11971;51.148;4.104;2023-07-16T17:26:43;105.78;;;39.78;;
23586;SDS011;11971;51.148;4.104;2023-07-16T17:29:10;105.35;;;39.53;;
23586;SDS011;11971;51.148;4.104;2023-07-16T17:31:36;106.80;;;39.35;;
23586;SDS011;11971;51.148;4.104;2023-07-16T17:34:03;105.13;;;39.53;;
23586;SDS011;11971;51.148;4.104;2023-07-16T17:36:32;105.65;;;39.15;;
23586;SDS011;11971;51.148;4.104;2023-07-16T17:38:58;108.50;;;39.37;;
23586;SDS011;11971;51.148;4.104;2023-07-16T17:41:25;111.18;;;39.78;;
23586;SDS011;11971;51.148;4.104;2023-07-16T17:43:52;107.28;;;39.60;;
23586;SDS011;11971;51.148;4.104;2023-07-16T17:46:18;108.30;;;39.70;;
23586;SDS011;11971;51.148;4.104;2023-07-16T17:48:45;105.60;;;39.35;;
23586;SDS011;11971;51.148;4.104;2023-07-16T17:51:12;108.43;;;39.28;;
23586;SDS011;11971;51.148;4.104;2023-07-16T17:53:42;107.78;;;39.63;;
23586;SDS011;11971;51.148;4.104;2023-07-16T17:56:09;107.20;;;39.35;;
23586;SDS011;11971;51.148;4.104;2023-07-16T17:58:35;106.35;;;39.40;;
23586;SDS011;11971;51.148;4.104;2023-07-16T18:01:02;107.38;;;39.75;;
23586;SDS011;11971;51.148;4.104;2023-07-16T18:03:30;108.63;;;39.75;;
23586;SDS011;11971;51.148;4.104;2023-07-16T18:05:57;107.68;;;40.85;;
23586;SDS011;11971;51.148;4.104;2023-07-16T18:08:24;107.82;;;39.65;;
23586;SDS011;11971;51.148;4.104;2023-07-16T18:10:53;109.13;;;39.80;;
23586;SDS011;11971;51.148;4.104;2023-07-16T18:13:20;107.57;;;41.00;;
23586;SDS011;11971;51.148;4.104;2023-07-16T18:15:47;108.40;;;39.72;;
23586;SDS011;11971;51.148;4.104;2023-07-16T18:18:14;105.70;;;39.35;;
23586;SDS011;11971;51.148;4.104;2023-07-16T18:20:41;111.45;;;41.03;;
23586;SDS011;11971;51.148;4.104;2023-07-16T18:23:08;105.50;;;39.30;;
23586;SDS011;11971;51.148;4.104;2023-07-16T18:25:34;108.03;;;40.38;;
23586;SDS011;11971;51.148;4.104;2023-07-16T18:28:02;108.00;;;40.67;;
23586;SDS011;11971;51.148;4.104;2023-07-16T18:30:29;107.72;;;40.08;;
23586;SDS011;11971;51.148;4.104;2023-07-16T18:32:56;109.38;;;41.22;;
23586;SDS011;11971;51.148;4.104;2023-07-16T18:35:23;109.32;;;40.95;;
23586;SDS011;11971;51.148;4.104;2023-07-16T18:37:50;111.18;;;39.95;;
23586;SDS011;11971;51.148;4.104;2023-07-16T18:40:16;109.43;;;41.22;;
23586;SDS011;11971;51.148;4.104;2023-07-16T18:42:43;110.25;;;41.13;;
23586;SDS011;11971;51.148;4.104;2023-07-16T18:45:11;104.97;;;39.45;;
23586;SDS011;11971;51.148;4.104;2023-07-16T18:47:37;114.15;;;41.42;;
23586;SDS011;11971;51.148;4.104;2023-07-16T18:50:05;108.07;;;40.38;;
23586;SDS011;11971;51.148;4.104;2023-07-16T18:52:34;108.75;;;39.60;;
23586;SDS011;11971;51.148;4.104;2023-07-16T18:55:01;108.13;;;41.00;;
23586;SDS011;11971;51.148;4.104;2023-07-16T18:57:28;109.95;;;41.10;;
23586;SDS011;11971;51.148;4.104;2023-07-16T18:59:55;106.30;;;39.83;;
23586;SDS011;11971;51.148;4.104;2023-07-16T19:02:23;112.63;;;41.33;;
23586;SDS011;11971;51.148;4.104;2023-07-16T19:04:50;108.65;;;40.17;;
23586;SDS011;11971;51.148;4.104;2023-07-16T19:07:16;106.50;;;39.35;;
23586;SDS011;11971;51.148;4.104;2023-07-16T19:09:44;108.20;;;40.55;;
23586;SDS011;11971;51.148;4.104;2023-07-16T19:12:11;106.07;;;39.78;;
23586;SDS011;11971;51.148;4.104;2023-07-16T19:14:37;109.03;;;39.70;;
23586;SDS011;11971;51.148;4.104;2023-07-16T19:17:04;107.25;;;39.38;;
23586;SDS011;11971;51.148;4.104;2023-07-16T19:19:32;111.63;;;39.10;;
23586;SDS011;11971;51.148;4.104;2023-07-16T19:22:00;105.10;;;39.17;;
23586;SDS011;11971;51.148;4.104;2023-07-16T19:24:28;104.22;;;39.00;;
23586;SDS011;11971;51.148;4.104;2023-07-16T19:26:54;108.15;;;39.28;;
23586;SDS011;11971;51.148;4.104;2023-07-16T19:29:21;107.20;;;39.15;;
23586;SDS011;11971;51.148;4.104;2023-07-16T19:31:48;109.25;;;39.47;;
23586;SDS011;11971;51.148;4.104;2023-07-16T19:34:14;107.75;;;39.22;;
23586;SDS011;11971;51.148;4.104;2023-07-16T19:36:43;107.32;;;39.35;;
23586;SDS011;11971;51.148;4.104;2023-07-16T19:39:09;110.22;;;39.28;;
23586;SDS011;11971;51.148;4.104;2023-07-16T19:41:36;106.78;;;39.13;;
23586;SDS011;11971;51.148;4.104;2023-07-16T19:44:03;104.80;;;39.13;;
23586;SDS011;11971;51.148;4.104;2023-07-16T19:46:31;104.15;;;38.95;;
23586;SDS011;11971;51.148;4.104;2023-07-16T19:48:58;107.43;;;39.25;;
23586;SDS011;11971;51.148;4.104;2023-07-16T19:51:25;105.57;;;38.85;;
23586;SDS011;11971;51.148;4.104;2023-07-16T19:55:02;104.90;;;39.28;;
23586;SDS011;11971;51.148;4.104;2023-07-16T19:57:29;104.80;;;39.35;;
23586;SDS011;11971;51.148;4.104;2023-07-16T19:59:59;106.82;;;39.28;;
23586;SDS011;11971;51.148;4.104;2023-07-16T20:02:26;103.57;;;39.03;;
23586;SDS011;11971;51.148;4.104;2023-07-16T20:04:53;105.90;;;39.72;;
23586;SDS011;11971;51.148;4.104;2023-07-16T20:07:20;104.60;;;39.42;;
23586;SDS011;11971;51.148;4.104;2023-07-16T20:09:47;105.22;;;39.65;;
23586;SDS011;11971;51.148;4.104;2023-07-16T20:12:17;104.28;;;39.42;;
23586;SDS011;11971;51.148;4.104;2023-07-16T20:14:44;105.35;;;39.55;;
23586;SDS011;11971;51.148;4.104;2023-07-16T20:17:11;105.13;;;39.55;;
23586;SDS011;11971;51.148;4.104;2023-07-16T20:19:38;104.40;;;39.17;;
23586;SDS011;11971;51.148;4.104;2023-07-16T20:22:05;105.25;;;39.55;;
23586;SDS011;11971;51.148;4.104;2023-07-16T20:24:32;105.47;;;39.25;;
23586;SDS011;11971;51.148;4.104;2023-07-16T20:26:59;104.55;;;39.20;;
23586;SDS011;11971;51.148;4.104;2023-07-16T20:29:27;106.05;;;39.30;;
23586;SDS011;11971;51.148;4.104;2023-07-16T20:31:53;109.40;;;39.45;;
23586;SDS011;11971;51.148;4.104;2023-07-16T20:34:20;107.40;;;39.42;;
23586;SDS011;11971;51.148;4.104;2023-07-16T20:36:47;105.30;;;39.42;;
23586;SDS011;11971;51.148;4.104;2023-07-16T20:39:13;106.05;;;39.47;;
23586;SDS011;11971;51.148;4.104;2023-07-16T20:41:40;108.50;;;39.70;;
23586;SDS011;11971;51.148;4.104;2023-07-16T20:44:07;105.18;;;39.53;;
23586;SDS011;11971;51.148;4.104;2023-07-16T20:46:39;105.25;;;39.47;;
23586;SDS011;11971;51.148;4.104;2023-07-16T20:49:06;105.83;;;39.33;;
23586;SDS011;11971;51.148;4.104;2023-07-16T20:51:33;110.45;;;39.80;;
23586;SDS011;11971;51.148;4.104;2023-07-16T20:54:00;108.97;;;39.35;;
23586;SDS011;11971;51.148;4.104;2023-07-16T20:56:28;103.22;;;38.97;;
23586;SDS011;11971;51.148;4.104;2023-07-16T20:58:54;110.55;;;39.85;;
23586;SDS011;11971;51.148;4.104;2023-07-16T21:01:21;104.93;;;39.58;;
23586;SDS011;11971;51.148;4.104;2023-07-16T21:03:49;105.53;;;39.70;;
23586;SDS011;11971;51.148;4.104;2023-07-16T21:06:18;108.25;;;39.72;;
23586;SDS011;11971;51.148;4.104;2023-07-16T21:08:46;106.72;;;39.50;;
23586;SDS011;11971;51.148;4.104;2023-07-16T21:11:13;108.38;;;39.70;;
23586;SDS011;11971;51.148;4.104;2023-07-16T21:13:40;107.78;;;39.92;;
23586;SDS011;11971;51.148;4.104;2023-07-16T21:16:06;105.75;;;39.35;;
23586;SDS011;11971;51.148;4.104;2023-07-16T21:18:33;110.00;;;40.03;;
23586;SDS011;11971;51.148;4.104;2023-07-16T21:21:02;107.07;;;39.67;;
23586;SDS011;11971;51.148;4.104;2023-07-16T21:23:29;103.78;;;39.55;;
23586;SDS011;11971;51.148;4.104;2023-07-16T21:25:56;107.65;;;39.80;;
23586;SDS011;11971;51.148;4.104;2023-07-16T21:28:23;104.45;;;39.45;;
23586;SDS011;11971;51.148;4.104;2023-07-16T21:30:49;105.63;;;39.92;;
23586;SDS011;11971;51.148;4.104;2023-07-16T21:33:16;111.70;;;39.40;;
23586;SDS011;11971;51.148;4.104;2023-07-16T21:35:43;107.25;;;39.28;;
23586;SDS011;11971;51.148;4.104;2023-07-16T21:38:11;108.13;;;39.60;;
23586;SDS011;11971;51.148;4.104;2023-07-16T21:40:37;109.40;;;40.03;;
23586;SDS011;11971;51.148;4.104;2023-07-16T21:43:04;109.00;;;39.65;;
23586;SDS011;11971;51.148;4.104;2023-07-16T21:45:32;110.00;;;39.55;;
23586;SDS011;11971;51.148;4.104;2023-07-16T21:47:58;106.32;;;39.50;;
23586;SDS011;11971;51.148;4.104;2023-07-16T21:50:25;107.95;;;39.58;;
23586;SDS011;11971;51.148;4.104;2023-07-16T21:52:51;106.65;;;39.67;;
23586;SDS011;11971;51.148;4.104;2023-07-16T21:55:20;106.25;;;39.78;;
23586;SDS011;11971;51.148;4.104;2023-07-16T21:57:47;103.75;;;39.08;;
23586;SDS011;11971;51.148;4.104;2023-07-16T22:00:14;106.03;;;39.30;;
23586;SDS011;11971;51.148;4.104;2023-07-16T22:02:42;104.60;;;39.45;;
23586;SDS011;11971;51.148;4.104;2023-07-16T22:05:09;109.38;;;39.33;;
23586;SDS011;11971;51.148;4.104;2023-07-16T22:07:36;103.13;;;39.30;;
23586;SDS011;11971;51.148;4.104;2023-07-16T22:10:03;104.07;;;39.15;;
23586;SDS011;11971;51.148;4.104;2023-07-16T22:12:36;106.70;;;39.60;;
23586;SDS011;11971;51.148;4.104;2023-07-16T22:15:04;104.45;;;39.60;;
23586;SDS011;11971;51.148;4.104;2023-07-16T22:17:31;107.28;;;39.47;;
23586;SDS011;11971;51.148;4.104;2023-07-16T22:19:58;105.32;;;39.47;;
23586;SDS011;11971;51.148;4.104;2023-07-16T22:22:25;106.25;;;39.28;;
23586;SDS011;11971;51.148;4.104;2023-07-16T22:24:51;106.55;;;39.28;;
23586;SDS011;11971;51.148;4.104;2023-07-16T22:27:18;104.32;;;39.15;;
23586;SDS011;11971;51.148;4.104;2023-07-16T22:29:46;106.97;;;39.42;;
23586;SDS011;11971;51.148;4.104;2023-07-16T22:32:13;105.70;;;39.13;;
23586;SDS011;11971;51.148;4.104;2023-07-16T22:34:40;106.32;;;39.22;;
23586;SDS011;11971;51.148;4.104;2023-07-16T22:37:07;104.20;;;38.97;;
23586;SDS011;11971;51.148;4.104;2023-07-16T22:39:34;108.82;;;39.63;;
23586;SDS011;11971;51.148;4.104;2023-07-16T22:42:01;104.10;;;38.83;;
23586;SDS011;11971;51.148;4.104;2023-07-16T22:44:28;108.15;;;39.58;;
23586;SDS011;11971;51.148;4.104;2023-07-16T22:46:56;105.18;;;38.55;;
23586;SDS011;11971;51.148;4.104;2023-07-16T22:49:23;107.32;;;39.30;;
23586;SDS011;11971;51.148;4.104;2023-07-16T22:51:50;104.38;;;38.75;;
23586;SDS011;11971;51.148;4.104;2023-07-16T22:54:16;104.65;;;38.60;;
23586;SDS011;11971;51.148;4.104;2023-07-16T22:56:43;106.50;;;39.00;;
23586;SDS011;11971;51.148;4.104;2023-07-16T22:59:09;104.00;;;38.55;;
23586;SDS011;11971;51.148;4.104;2023-07-16T23:01:36;109.53;;;39.13;;
23586;SDS011;11971;51.148;4.104;2023-07-16T23:04:07;107.43;;;38.47;;
23586;SDS011;11971;51.148;4.104;2023-07-16T23:06:33;103.03;;;38.55;;
23586;SDS011;11971;51.148;4.104;2023-07-16T23:09:00;106.18;;;38.75;;
23586;SDS011;11971;51.148;4.104;2023-07-16T23:11:27;103.78;;;38.42;;
23586;SDS011;11971;51.148;4.104;2023-07-16T23:13:54;104.43;;;38.35;;
23586;SDS011;11971;51.148;4.104;2023-07-16T23:16:20;104.43;;;38.35;;
23586;SDS011;11971;51.148;4.104;2023-07-16T23:18:47;105.68;;;38.33;;
23586;SDS011;11971;51.148;4.104;2023-07-16T23:21:15;102.18;;;38.42;;
23586;SDS011;11971;51.148;4.104;2023-07-16T23:23:42;105.70;;;38.38;;
23586;SDS011;11971;51.148;4.104;2023-07-16T23:26:09;100.88;;;38.28;;
23586;SDS011;11971;51.148;4.104;2023-07-16T23:28:37;103.15;;;38.65;;
23586;SDS011;11971;51.148;4.104;2023-07-16T23:31:07;105.13;;;38.65;;
23586;SDS011;11971;51.148;4.104;2023-07-16T23:33:34;100.15;;;38.05;;
23586;SDS011;11971;51.148;4.104;2023-07-16T23:36:01;103.75;;;38.30;;
23586;SDS011;11971;51.148;4.104;2023-07-16T23:38:29;102.18;;;38.50;;
23586;SDS011;11971;51.148;4.104;2023-07-16T23:40:56;104.55;;;38.30;;
23586;SDS011;11971;51.148;4.104;2023-07-16T23:43:23;106.60;;;38.55;;
23586;SDS011;11971;51.148;4.104;2023-07-16T23:45:49;104.45;;;39.33;;
23586;SDS011;11971;51.148;4.104;2023-07-16T23:48:16;103.97;;;38.65;;
23586;SDS011;11971;51.148;4.104;2023-07-16T23:50:43;102.93;;;38.67;;
23586;SDS011;11971;51.148;4.104;2023-07-16T23:53:09;110.68;;;39.13;;
23586;SDS011;11971;51.148;4.104;2023-07-16T23:55:37;105.35;;;38.72;;
23586;SDS011;11971;51.148;4.104;2023-07-16T23:58:04;102.30;;;38.63;;
